This is the latest recevied weather packets stored in our database for station/object EA2BK-11. If no packets are shown the sender has not sent any weather packets the latest 10 day(s).
| Time | Temp. | Humidity | Pressure | Rain* | Wind** | Luminosity | Snow |
|---|---|---|---|---|---|---|---|
| 1777389149 | 36.67° C | 13% | 940 hPa | - | - | - | - |
| 1777388244 | 36.67° C | 14% | 940 hPa | - | - | - | - |
| 1777387339 | 35.56° C | 16% | 941 hPa | - | - | - | - |
| 1777386434 | 34.44° C | 16% | 941 hPa | - | - | - | - |
| 1777385529 | 33.89° C | 17% | 941 hPa | - | - | - | - |
| 1777384623 | 35° C | 16% | 941 hPa | - | - | - | - |
| 1777383718 | 33.89° C | 17% | 942 hPa | - | - | - | - |
| 1777382813 | 33.89° C | 17% | 942 hPa | - | - | - | - |
| 1777381908 | 29.44° C | 22% | 942 hPa | - | - | - | - |
| 1777381200 | 30° C | 22% | 942 hPa | - | - | - | - |
| 1777381003 | 30° C | 22% | 942 hPa | - | - | - | - |
| 1777380097 | 28.89° C | 25% | 942 hPa | - | - | - | - |
| 1777379192 | 28.33° C | 25% | 942 hPa | - | - | - | - |
| 1777378287 | 27.78° C | 26% | 943 hPa | - | - | - | - |
| 1777377381 | 27.22° C | 28% | 943 hPa | - | - | - | - |
| 1777376476 | 26.11° C | 30% | 943 hPa | - | - | - | - |
| 1777375571 | 26.11° C | 32% | 943 hPa | - | - | - | - |
| 1777374666 | 25.56° C | 34% | 944 hPa | - | - | - | - |
| 1777373761 | 25.56° C | 36% | 944 hPa | - | - | - | - |
| 1777372855 | 25° C | 37% | 944 hPa | - | - | - | - |
| 1777371950 | 24.44° C | 40% | 944 hPa | - | - | - | - |
| 1777371045 | 23.33° C | 41% | 944 hPa | - | - | - | - |
| 1777370140 | 23.33° C | 43% | 945 hPa | - | - | - | - |
| 1777369235 | 22.22° C | 45% | 945 hPa | - | - | - | - |
| 1777368330 | 21.67° C | 47% | 945 hPa | - | - | - | - |
* Rain since midnight (hover to see other rain measurements)
** Current wind speed in m/s (hover to see current wind gust speed)